sensor_id;sensor_type;location;lat;lon;timestamp;P1;durP1;ratioP1;P2;durP2;ratioP2
27305;SDS011;14792;50.886;6.468;2024-01-15T00:00:41;56.65;;;21.75;;
27305;SDS011;14792;50.886;6.468;2024-01-15T00:03:42;62.95;;;23.52;;
27305;SDS011;14792;50.886;6.468;2024-01-15T00:06:44;60.80;;;23.92;;
27305;SDS011;14792;50.886;6.468;2024-01-15T00:09:45;61.90;;;23.42;;
27305;SDS011;14792;50.886;6.468;2024-01-15T00:12:47;61.90;;;24.52;;
27305;SDS011;14792;50.886;6.468;2024-01-15T00:15:48;57.33;;;24.43;;
27305;SDS011;14792;50.886;6.468;2024-01-15T00:18:50;59.83;;;23.62;;
27305;SDS011;14792;50.886;6.468;2024-01-15T00:21:52;57.38;;;22.98;;
27305;SDS011;14792;50.886;6.468;2024-01-15T00:24:53;62.35;;;23.18;;
27305;SDS011;14792;50.886;6.468;2024-01-15T00:27:55;60.73;;;23.38;;
27305;SDS011;14792;50.886;6.468;2024-01-15T00:30:56;54.15;;;21.75;;
27305;SDS011;14792;50.886;6.468;2024-01-15T00:33:58;56.40;;;21.97;;
27305;SDS011;14792;50.886;6.468;2024-01-15T00:37:00;58.00;;;21.97;;
27305;SDS011;14792;50.886;6.468;2024-01-15T00:40:02;55.83;;;21.20;;
27305;SDS011;14792;50.886;6.468;2024-01-15T00:43:03;51.08;;;21.80;;
27305;SDS011;14792;50.886;6.468;2024-01-15T00:46:05;51.23;;;21.17;;
27305;SDS011;14792;50.886;6.468;2024-01-15T00:49:07;50.52;;;21.85;;
27305;SDS011;14792;50.886;6.468;2024-01-15T00:52:08;49.53;;;20.88;;
27305;SDS011;14792;50.886;6.468;2024-01-15T00:55:10;54.27;;;22.10;;
27305;SDS011;14792;50.886;6.468;2024-01-15T00:58:12;56.37;;;21.37;;
27305;SDS011;14792;50.886;6.468;2024-01-15T01:01:13;58.78;;;23.18;;
27305;SDS011;14792;50.886;6.468;2024-01-15T01:04:15;60.05;;;23.55;;
27305;SDS011;14792;50.886;6.468;2024-01-15T01:07:16;53.17;;;22.85;;
27305;SDS011;14792;50.886;6.468;2024-01-15T01:10:18;51.92;;;22.13;;
27305;SDS011;14792;50.886;6.468;2024-01-15T01:13:19;62.75;;;24.12;;
27305;SDS011;14792;50.886;6.468;2024-01-15T01:16:21;60.52;;;22.25;;
27305;SDS011;14792;50.886;6.468;2024-01-15T01:19:23;57.03;;;23.27;;
27305;SDS011;14792;50.886;6.468;2024-01-15T01:22:24;64.65;;;24.15;;
27305;SDS011;14792;50.886;6.468;2024-01-15T01:25:26;67.17;;;25.12;;
27305;SDS011;14792;50.886;6.468;2024-01-15T01:28:27;73.45;;;24.80;;
27305;SDS011;14792;50.886;6.468;2024-01-15T01:31:29;71.70;;;26.40;;
27305;SDS011;14792;50.886;6.468;2024-01-15T01:34:32;69.70;;;26.97;;
27305;SDS011;14792;50.886;6.468;2024-01-15T01:37:32;77.37;;;25.48;;
27305;SDS011;14792;50.886;6.468;2024-01-15T01:40:34;65.35;;;23.40;;
27305;SDS011;14792;50.886;6.468;2024-01-15T01:43:35;62.62;;;24.37;;
27305;SDS011;14792;50.886;6.468;2024-01-15T01:46:37;67.12;;;24.50;;
27305;SDS011;14792;50.886;6.468;2024-01-15T01:49:41;69.95;;;25.45;;
27305;SDS011;14792;50.886;6.468;2024-01-15T01:52:43;69.22;;;25.77;;
27305;SDS011;14792;50.886;6.468;2024-01-15T01:55:44;71.33;;;26.40;;
27305;SDS011;14792;50.886;6.468;2024-01-15T01:58:46;70.10;;;26.60;;
27305;SDS011;14792;50.886;6.468;2024-01-15T02:01:48;72.65;;;26.25;;
27305;SDS011;14792;50.886;6.468;2024-01-15T02:04:49;73.60;;;27.27;;
27305;SDS011;14792;50.886;6.468;2024-01-15T02:07:51;77.15;;;26.57;;
27305;SDS011;14792;50.886;6.468;2024-01-15T02:10:52;75.17;;;25.80;;
27305;SDS011;14792;50.886;6.468;2024-01-15T02:13:54;74.05;;;27.10;;
27305;SDS011;14792;50.886;6.468;2024-01-15T02:16:55;77.20;;;27.77;;
27305;SDS011;14792;50.886;6.468;2024-01-15T02:19:57;71.57;;;28.60;;
27305;SDS011;14792;50.886;6.468;2024-01-15T02:23:07;76.97;;;28.57;;
27305;SDS011;14792;50.886;6.468;2024-01-15T02:26:12;82.08;;;30.25;;
27305;SDS011;14792;50.886;6.468;2024-01-15T02:29:14;80.57;;;29.18;;
27305;SDS011;14792;50.886;6.468;2024-01-15T02:32:15;77.25;;;29.87;;
27305;SDS011;14792;50.886;6.468;2024-01-15T02:35:17;76.67;;;28.85;;
27305;SDS011;14792;50.886;6.468;2024-01-15T02:38:18;73.62;;;28.90;;
27305;SDS011;14792;50.886;6.468;2024-01-15T02:41:20;68.47;;;24.52;;
27305;SDS011;14792;50.886;6.468;2024-01-15T02:44:22;76.97;;;29.95;;
27305;SDS011;14792;50.886;6.468;2024-01-15T02:47:23;71.45;;;29.07;;
27305;SDS011;14792;50.886;6.468;2024-01-15T02:50:25;70.52;;;29.18;;
27305;SDS011;14792;50.886;6.468;2024-01-15T02:53:27;75.05;;;31.23;;
27305;SDS011;14792;50.886;6.468;2024-01-15T02:56:28;79.10;;;30.82;;
27305;SDS011;14792;50.886;6.468;2024-01-15T02:59:30;76.33;;;31.00;;
27305;SDS011;14792;50.886;6.468;2024-01-15T03:02:31;74.45;;;29.40;;
27305;SDS011;14792;50.886;6.468;2024-01-15T03:05:33;75.30;;;30.85;;
27305;SDS011;14792;50.886;6.468;2024-01-15T03:08:34;69.65;;;30.27;;
27305;SDS011;14792;50.886;6.468;2024-01-15T03:11:39;79.05;;;31.12;;
27305;SDS011;14792;50.886;6.468;2024-01-15T03:14:40;76.72;;;29.27;;
27305;SDS011;14792;50.886;6.468;2024-01-15T03:17:42;70.12;;;28.55;;
27305;SDS011;14792;50.886;6.468;2024-01-15T03:20:44;74.32;;;27.05;;
27305;SDS011;14792;50.886;6.468;2024-01-15T03:23:45;76.02;;;29.85;;
27305;SDS011;14792;50.886;6.468;2024-01-15T03:26:47;72.00;;;30.10;;
27305;SDS011;14792;50.886;6.468;2024-01-15T03:29:48;59.75;;;27.87;;
27305;SDS011;14792;50.886;6.468;2024-01-15T03:32:50;69.60;;;28.10;;
27305;SDS011;14792;50.886;6.468;2024-01-15T03:35:51;71.50;;;27.20;;
27305;SDS011;14792;50.886;6.468;2024-01-15T03:38:53;66.90;;;27.20;;
27305;SDS011;14792;50.886;6.468;2024-01-15T03:41:55;59.33;;;26.00;;
27305;SDS011;14792;50.886;6.468;2024-01-15T03:44:56;57.78;;;24.23;;
27305;SDS011;14792;50.886;6.468;2024-01-15T03:47:58;64.05;;;24.63;;
27305;SDS011;14792;50.886;6.468;2024-01-15T03:50:59;57.78;;;24.60;;
27305;SDS011;14792;50.886;6.468;2024-01-15T03:54:01;53.15;;;23.55;;
27305;SDS011;14792;50.886;6.468;2024-01-15T03:57:03;51.50;;;23.15;;
27305;SDS011;14792;50.886;6.468;2024-01-15T04:00:04;54.42;;;23.35;;
27305;SDS011;14792;50.886;6.468;2024-01-15T04:03:06;51.77;;;22.95;;
27305;SDS011;14792;50.886;6.468;2024-01-15T04:06:08;52.48;;;22.95;;
27305;SDS011;14792;50.886;6.468;2024-01-15T04:09:09;54.98;;;24.92;;
27305;SDS011;14792;50.886;6.468;2024-01-15T04:12:11;48.40;;;21.75;;
27305;SDS011;14792;50.886;6.468;2024-01-15T04:15:12;55.95;;;25.57;;
27305;SDS011;14792;50.886;6.468;2024-01-15T04:18:15;55.12;;;22.95;;
27305;SDS011;14792;50.886;6.468;2024-01-15T04:21:16;52.43;;;22.17;;
27305;SDS011;14792;50.886;6.468;2024-01-15T04:24:17;52.80;;;24.47;;
27305;SDS011;14792;50.886;6.468;2024-01-15T04:27:19;53.52;;;23.62;;
27305;SDS011;14792;50.886;6.468;2024-01-15T04:30:20;55.05;;;25.45;;
27305;SDS011;14792;50.886;6.468;2024-01-15T04:33:22;53.87;;;24.05;;
27305;SDS011;14792;50.886;6.468;2024-01-15T04:36:23;57.70;;;24.47;;
27305;SDS011;14792;50.886;6.468;2024-01-15T04:39:25;51.40;;;24.20;;
27305;SDS011;14792;50.886;6.468;2024-01-15T04:42:27;54.45;;;23.90;;
27305;SDS011;14792;50.886;6.468;2024-01-15T04:45:28;49.27;;;22.30;;
27305;SDS011;14792;50.886;6.468;2024-01-15T04:48:30;54.05;;;23.80;;
27305;SDS011;14792;50.886;6.468;2024-01-15T04:51:31;52.15;;;23.25;;
27305;SDS011;14792;50.886;6.468;2024-01-15T04:54:33;49.23;;;21.82;;
27305;SDS011;14792;50.886;6.468;2024-01-15T04:57:34;45.73;;;21.07;;
27305;SDS011;14792;50.886;6.468;2024-01-15T05:00:36;46.95;;;20.75;;
27305;SDS011;14792;50.886;6.468;2024-01-15T05:03:38;41.35;;;19.73;;
27305;SDS011;14792;50.886;6.468;2024-01-15T05:06:39;41.18;;;19.62;;
27305;SDS011;14792;50.886;6.468;2024-01-15T05:09:41;44.42;;;19.00;;
27305;SDS011;14792;50.886;6.468;2024-01-15T05:12:42;43.65;;;20.90;;
27305;SDS011;14792;50.886;6.468;2024-01-15T05:15:44;44.65;;;22.17;;
27305;SDS011;14792;50.886;6.468;2024-01-15T05:18:46;48.92;;;22.45;;
27305;SDS011;14792;50.886;6.468;2024-01-15T05:21:47;43.70;;;21.70;;
27305;SDS011;14792;50.886;6.468;2024-01-15T05:24:49;46.70;;;22.90;;
27305;SDS011;14792;50.886;6.468;2024-01-15T05:27:50;52.08;;;24.80;;
27305;SDS011;14792;50.886;6.468;2024-01-15T05:30:52;53.02;;;24.35;;
27305;SDS011;14792;50.886;6.468;2024-01-15T05:33:54;61.92;;;25.68;;
27305;SDS011;14792;50.886;6.468;2024-01-15T05:36:55;56.65;;;25.17;;
27305;SDS011;14792;50.886;6.468;2024-01-15T05:39:57;50.92;;;25.00;;
27305;SDS011;14792;50.886;6.468;2024-01-15T05:42:58;56.83;;;24.87;;
27305;SDS011;14792;50.886;6.468;2024-01-15T05:46:00;54.38;;;25.08;;
27305;SDS011;14792;50.886;6.468;2024-01-15T05:49:01;53.98;;;26.55;;
27305;SDS011;14792;50.886;6.468;2024-01-15T05:52:03;60.17;;;26.02;;
27305;SDS011;14792;50.886;6.468;2024-01-15T05:55:06;52.15;;;23.47;;
27305;SDS011;14792;50.886;6.468;2024-01-15T05:58:07;60.48;;;25.45;;
27305;SDS011;14792;50.886;6.468;2024-01-15T06:01:09;55.20;;;24.90;;
27305;SDS011;14792;50.886;6.468;2024-01-15T06:04:10;59.95;;;25.37;;
27305;SDS011;14792;50.886;6.468;2024-01-15T06:07:12;58.35;;;25.40;;
27305;SDS011;14792;50.886;6.468;2024-01-15T06:10:14;62.78;;;26.97;;
27305;SDS011;14792;50.886;6.468;2024-01-15T06:16:17;60.30;;;23.10;;
27305;SDS011;14792;50.886;6.468;2024-01-15T06:19:18;65.10;;;27.45;;
27305;SDS011;14792;50.886;6.468;2024-01-15T06:22:20;69.20;;;26.10;;
27305;SDS011;14792;50.886;6.468;2024-01-15T06:25:21;70.22;;;26.75;;
27305;SDS011;14792;50.886;6.468;2024-01-15T06:28:23;56.65;;;25.82;;
27305;SDS011;14792;50.886;6.468;2024-01-15T06:31:25;59.03;;;24.70;;
27305;SDS011;14792;50.886;6.468;2024-01-15T06:34:26;54.75;;;25.08;;
27305;SDS011;14792;50.886;6.468;2024-01-15T06:37:28;56.00;;;25.68;;
27305;SDS011;14792;50.886;6.468;2024-01-15T06:40:29;62.88;;;26.90;;
27305;SDS011;14792;50.886;6.468;2024-01-15T06:43:31;59.53;;;24.75;;
27305;SDS011;14792;50.886;6.468;2024-01-15T06:46:34;61.92;;;26.05;;
27305;SDS011;14792;50.886;6.468;2024-01-15T06:49:34;67.10;;;27.15;;
27305;SDS011;14792;50.886;6.468;2024-01-15T06:52:36;53.28;;;21.73;;
27305;SDS011;14792;50.886;6.468;2024-01-15T06:55:38;55.45;;;26.02;;
27305;SDS011;14792;50.886;6.468;2024-01-15T06:58:39;61.58;;;26.25;;
27305;SDS011;14792;50.886;6.468;2024-01-15T07:01:41;64.35;;;26.55;;
27305;SDS011;14792;50.886;6.468;2024-01-15T07:04:42;51.77;;;24.72;;
27305;SDS011;14792;50.886;6.468;2024-01-15T07:07:44;51.80;;;25.62;;
27305;SDS011;14792;50.886;6.468;2024-01-15T07:10:45;54.65;;;26.42;;
27305;SDS011;14792;50.886;6.468;2024-01-15T07:13:47;56.18;;;27.45;;
27305;SDS011;14792;50.886;6.468;2024-01-15T07:16:49;58.80;;;26.60;;
27305;SDS011;14792;50.886;6.468;2024-01-15T07:19:50;59.10;;;27.30;;
27305;SDS011;14792;50.886;6.468;2024-01-15T07:22:52;61.10;;;27.95;;
27305;SDS011;14792;50.886;6.468;2024-01-15T07:25:53;65.67;;;28.83;;
27305;SDS011;14792;50.886;6.468;2024-01-15T07:28:55;58.75;;;28.52;;
27305;SDS011;14792;50.886;6.468;2024-01-15T07:31:56;58.73;;;28.87;;
27305;SDS011;14792;50.886;6.468;2024-01-15T07:34:58;58.60;;;28.57;;
27305;SDS011;14792;50.886;6.468;2024-01-15T07:38:00;57.35;;;27.52;;
27305;SDS011;14792;50.886;6.468;2024-01-15T07:41:01;55.98;;;26.87;;
27305;SDS011;14792;50.886;6.468;2024-01-15T07:44:03;53.05;;;26.00;;
27305;SDS011;14792;50.886;6.468;2024-01-15T07:47:04;57.00;;;26.70;;
27305;SDS011;14792;50.886;6.468;2024-01-15T07:50:06;52.50;;;24.18;;
27305;SDS011;14792;50.886;6.468;2024-01-15T07:53:08;52.20;;;23.92;;
27305;SDS011;14792;50.886;6.468;2024-01-15T07:56:09;53.05;;;24.23;;
27305;SDS011;14792;50.886;6.468;2024-01-15T07:59:11;44.60;;;22.13;;
27305;SDS011;14792;50.886;6.468;2024-01-15T08:02:12;44.30;;;20.90;;
27305;SDS011;14792;50.886;6.468;2024-01-15T08:05:14;43.65;;;19.67;;
27305;SDS011;14792;50.886;6.468;2024-01-15T08:08:16;39.10;;;20.52;;
27305;SDS011;14792;50.886;6.468;2024-01-15T08:11:17;39.18;;;20.05;;
27305;SDS011;14792;50.886;6.468;2024-01-15T08:14:19;44.08;;;20.32;;
27305;SDS011;14792;50.886;6.468;2024-01-15T08:17:20;43.65;;;21.33;;
27305;SDS011;14792;50.886;6.468;2024-01-15T08:20:22;39.10;;;18.90;;
27305;SDS011;14792;50.886;6.468;2024-01-15T08:23:23;38.58;;;18.32;;
27305;SDS011;14792;50.886;6.468;2024-01-15T08:26:25;32.48;;;17.60;;
27305;SDS011;14792;50.886;6.468;2024-01-15T08:29:27;33.80;;;17.98;;
27305;SDS011;14792;50.886;6.468;2024-01-15T08:32:28;33.67;;;16.00;;
27305;SDS011;14792;50.886;6.468;2024-01-15T08:35:30;35.78;;;15.85;;
27305;SDS011;14792;50.886;6.468;2024-01-15T08:38:31;38.75;;;16.23;;
27305;SDS011;14792;50.886;6.468;2024-01-15T08:41:33;24.85;;;14.70;;
27305;SDS011;14792;50.886;6.468;2024-01-15T08:44:35;32.17;;;14.65;;
27305;SDS011;14792;50.886;6.468;2024-01-15T08:47:36;29.30;;;14.03;;
27305;SDS011;14792;50.886;6.468;2024-01-15T08:50:38;27.93;;;14.30;;
27305;SDS011;14792;50.886;6.468;2024-01-15T08:53:39;26.52;;;13.38;;
27305;SDS011;14792;50.886;6.468;2024-01-15T08:56:41;26.45;;;13.55;;
27305;SDS011;14792;50.886;6.468;2024-01-15T08:59:43;27.45;;;14.53;;
27305;SDS011;14792;50.886;6.468;2024-01-15T09:02:44;30.60;;;14.68;;
27305;SDS011;14792;50.886;6.468;2024-01-15T09:05:46;31.27;;;14.78;;
27305;SDS011;14792;50.886;6.468;2024-01-15T09:08:47;27.82;;;13.15;;
27305;SDS011;14792;50.886;6.468;2024-01-15T09:11:49;22.62;;;12.15;;
27305;SDS011;14792;50.886;6.468;2024-01-15T09:14:50;29.87;;;14.55;;
27305;SDS011;14792;50.886;6.468;2024-01-15T09:17:53;28.57;;;13.55;;
27305;SDS011;14792;50.886;6.468;2024-01-15T09:20:55;29.55;;;15.53;;
27305;SDS011;14792;50.886;6.468;2024-01-15T09:23:56;30.00;;;13.93;;
27305;SDS011;14792;50.886;6.468;2024-01-15T09:26:58;28.45;;;13.15;;
27305;SDS011;14792;50.886;6.468;2024-01-15T09:29:59;29.77;;;13.55;;
27305;SDS011;14792;50.886;6.468;2024-01-15T09:33:01;22.52;;;11.78;;
27305;SDS011;14792;50.886;6.468;2024-01-15T09:39:04;23.15;;;12.28;;
27305;SDS011;14792;50.886;6.468;2024-01-15T09:42:06;30.20;;;14.63;;
27305;SDS011;14792;50.886;6.468;2024-01-15T09:45:07;28.90;;;17.15;;
27305;SDS011;14792;50.886;6.468;2024-01-15T09:48:09;34.18;;;15.72;;
27305;SDS011;14792;50.886;6.468;2024-01-15T09:51:10;33.28;;;16.02;;
27305;SDS011;14792;50.886;6.468;2024-01-15T09:54:12;28.50;;;14.45;;
27305;SDS011;14792;50.886;6.468;2024-01-15T09:57:14;29.70;;;14.83;;
27305;SDS011;14792;50.886;6.468;2024-01-15T10:00:19;26.93;;;14.85;;
27305;SDS011;14792;50.886;6.468;2024-01-15T10:03:17;31.02;;;14.93;;
27305;SDS011;14792;50.886;6.468;2024-01-15T10:06:18;27.30;;;14.93;;
27305;SDS011;14792;50.886;6.468;2024-01-15T10:09:20;29.60;;;15.78;;
27305;SDS011;14792;50.886;6.468;2024-01-15T10:12:22;30.10;;;15.60;;
27305;SDS011;14792;50.886;6.468;2024-01-15T10:15:23;28.55;;;15.60;;
27305;SDS011;14792;50.886;6.468;2024-01-15T10:18:25;26.93;;;16.23;;
27305;SDS011;14792;50.886;6.468;2024-01-15T10:21:26;28.92;;;16.52;;
27305;SDS011;14792;50.886;6.468;2024-01-15T10:24:28;32.30;;;18.35;;
27305;SDS011;14792;50.886;6.468;2024-01-15T10:27:30;31.42;;;18.48;;
27305;SDS011;14792;50.886;6.468;2024-01-15T10:30:31;35.73;;;18.95;;
27305;SDS011;14792;50.886;6.468;2024-01-15T10:33:33;38.92;;;20.62;;
27305;SDS011;14792;50.886;6.468;2024-01-15T10:36:34;41.50;;;20.68;;
27305;SDS011;14792;50.886;6.468;2024-01-15T10:39:36;42.15;;;20.15;;
27305;SDS011;14792;50.886;6.468;2024-01-15T10:42:37;38.80;;;19.87;;
27305;SDS011;14792;50.886;6.468;2024-01-15T10:45:39;37.80;;;20.90;;
27305;SDS011;14792;50.886;6.468;2024-01-15T10:48:41;38.15;;;20.17;;
27305;SDS011;14792;50.886;6.468;2024-01-15T10:51:42;35.35;;;20.00;;
27305;SDS011;14792;50.886;6.468;2024-01-15T10:54:44;32.63;;;18.80;;
27305;SDS011;14792;50.886;6.468;2024-01-15T10:57:45;39.75;;;19.37;;
27305;SDS011;14792;50.886;6.468;2024-01-15T11:00:47;36.75;;;19.17;;
27305;SDS011;14792;50.886;6.468;2024-01-15T11:03:49;36.68;;;19.23;;
27305;SDS011;14792;50.886;6.468;2024-01-15T11:06:52;39.23;;;20.62;;
27305;SDS011;14792;50.886;6.468;2024-01-15T11:09:52;42.05;;;21.20;;
27305;SDS011;14792;50.886;6.468;2024-01-15T11:12:53;42.00;;;21.05;;
27305;SDS011;14792;50.886;6.468;2024-01-15T11:15:58;41.25;;;19.87;;
27305;SDS011;14792;50.886;6.468;2024-01-15T11:22:01;42.35;;;17.87;;
27305;SDS011;14792;50.886;6.468;2024-01-15T11:25:03;33.67;;;16.35;;
27305;SDS011;14792;50.886;6.468;2024-01-15T11:28:04;29.60;;;14.30;;
27305;SDS011;14792;50.886;6.468;2024-01-15T11:31:06;27.27;;;12.53;;
27305;SDS011;14792;50.886;6.468;2024-01-15T11:34:08;28.50;;;11.12;;
27305;SDS011;14792;50.886;6.468;2024-01-15T11:37:09;24.92;;;10.55;;
27305;SDS011;14792;50.886;6.468;2024-01-15T11:40:11;33.00;;;10.35;;
27305;SDS011;14792;50.886;6.468;2024-01-15T11:43:12;21.73;;;9.45;;
27305;SDS011;14792;50.886;6.468;2024-01-15T11:46:14;27.40;;;10.72;;
27305;SDS011;14792;50.886;6.468;2024-01-15T11:49:17;30.30;;;10.55;;
27305;SDS011;14792;50.886;6.468;2024-01-15T11:52:17;23.20;;;9.15;;
27305;SDS011;14792;50.886;6.468;2024-01-15T11:55:19;25.65;;;9.53;;
27305;SDS011;14792;50.886;6.468;2024-01-15T11:58:20;19.77;;;8.23;;
27305;SDS011;14792;50.886;6.468;2024-01-15T12:01:22;24.95;;;8.88;;
27305;SDS011;14792;50.886;6.468;2024-01-15T12:04:23;21.10;;;8.13;;
27305;SDS011;14792;50.886;6.468;2024-01-15T12:07:25;18.75;;;7.83;;
27305;SDS011;14792;50.886;6.468;2024-01-15T12:10:26;17.10;;;6.50;;
27305;SDS011;14792;50.886;6.468;2024-01-15T12:13:28;19.15;;;6.47;;
27305;SDS011;14792;50.886;6.468;2024-01-15T12:16:30;17.70;;;6.70;;
27305;SDS011;14792;50.886;6.468;2024-01-15T12:19:31;16.77;;;5.92;;
27305;SDS011;14792;50.886;6.468;2024-01-15T12:22:33;13.05;;;6.12;;
27305;SDS011;14792;50.886;6.468;2024-01-15T12:25:34;16.65;;;6.05;;
27305;SDS011;14792;50.886;6.468;2024-01-15T12:28:36;15.10;;;6.05;;
27305;SDS011;14792;50.886;6.468;2024-01-15T12:31:38;16.37;;;6.10;;
27305;SDS011;14792;50.886;6.468;2024-01-15T12:34:39;13.40;;;6.08;;
27305;SDS011;14792;50.886;6.468;2024-01-15T12:37:44;19.60;;;6.58;;
27305;SDS011;14792;50.886;6.468;2024-01-15T12:40:45;18.75;;;6.50;;
27305;SDS011;14792;50.886;6.468;2024-01-15T12:43:49;22.37;;;7.10;;
27305;SDS011;14792;50.886;6.468;2024-01-15T12:46:51;21.82;;;6.28;;
27305;SDS011;14792;50.886;6.468;2024-01-15T12:49:52;18.62;;;7.45;;
27305;SDS011;14792;50.886;6.468;2024-01-15T12:52:57;24.32;;;8.00;;
27305;SDS011;14792;50.886;6.468;2024-01-15T12:55:58;15.70;;;8.15;;
27305;SDS011;14792;50.886;6.468;2024-01-15T12:59:00;22.02;;;7.90;;
27305;SDS011;14792;50.886;6.468;2024-01-15T13:02:01;21.97;;;8.08;;
27305;SDS011;14792;50.886;6.468;2024-01-15T13:05:03;14.07;;;6.97;;
27305;SDS011;14792;50.886;6.468;2024-01-15T13:08:05;11.70;;;5.60;;
27305;SDS011;14792;50.886;6.468;2024-01-15T13:11:06;14.33;;;5.90;;
27305;SDS011;14792;50.886;6.468;2024-01-15T13:14:08;14.23;;;6.25;;
27305;SDS011;14792;50.886;6.468;2024-01-15T13:17:09;14.83;;;5.92;;
27305;SDS011;14792;50.886;6.468;2024-01-15T13:20:11;15.18;;;6.20;;
27305;SDS011;14792;50.886;6.468;2024-01-15T13:23:13;14.53;;;6.55;;
27305;SDS011;14792;50.886;6.468;2024-01-15T13:26:14;13.55;;;5.62;;
27305;SDS011;14792;50.886;6.468;2024-01-15T13:29:16;9.68;;;4.55;;
27305;SDS011;14792;50.886;6.468;2024-01-15T13:32:22;11.00;;;4.87;;
27305;SDS011;14792;50.886;6.468;2024-01-15T13:35:19;16.10;;;5.28;;
27305;SDS011;14792;50.886;6.468;2024-01-15T13:38:20;7.97;;;3.98;;
27305;SDS011;14792;50.886;6.468;2024-01-15T13:41:22;10.50;;;4.87;;
27305;SDS011;14792;50.886;6.468;2024-01-15T13:44:24;9.93;;;4.53;;
27305;SDS011;14792;50.886;6.468;2024-01-15T13:47:25;7.58;;;4.10;;
27305;SDS011;14792;50.886;6.468;2024-01-15T13:50:27;10.88;;;3.75;;
27305;SDS011;14792;50.886;6.468;2024-01-15T13:53:28;7.97;;;3.92;;
27305;SDS011;14792;50.886;6.468;2024-01-15T13:56:30;7.37;;;3.37;;
27305;SDS011;14792;50.886;6.468;2024-01-15T13:59:32;16.50;;;4.62;;
27305;SDS011;14792;50.886;6.468;2024-01-15T14:02:33;9.18;;;4.03;;
27305;SDS011;14792;50.886;6.468;2024-01-15T14:05:35;9.83;;;4.50;;
27305;SDS011;14792;50.886;6.468;2024-01-15T14:08:37;10.23;;;5.50;;
27305;SDS011;14792;50.886;6.468;2024-01-15T14:11:38;8.38;;;5.08;;
27305;SDS011;14792;50.886;6.468;2024-01-15T14:14:39;8.03;;;4.90;;
27305;SDS011;14792;50.886;6.468;2024-01-15T14:17:41;12.20;;;5.08;;
27305;SDS011;14792;50.886;6.468;2024-01-15T14:20:43;8.20;;;4.42;;
27305;SDS011;14792;50.886;6.468;2024-01-15T14:23:44;8.85;;;4.12;;
27305;SDS011;14792;50.886;6.468;2024-01-15T14:26:46;10.00;;;4.50;;
27305;SDS011;14792;50.886;6.468;2024-01-15T14:29:47;7.08;;;3.90;;
27305;SDS011;14792;50.886;6.468;2024-01-15T14:32:49;7.22;;;4.42;;
27305;SDS011;14792;50.886;6.468;2024-01-15T14:35:51;8.38;;;5.05;;
27305;SDS011;14792;50.886;6.468;2024-01-15T14:38:52;15.60;;;5.42;;
27305;SDS011;14792;50.886;6.468;2024-01-15T14:41:54;8.00;;;4.87;;
27305;SDS011;14792;50.886;6.468;2024-01-15T14:44:56;8.55;;;5.05;;
27305;SDS011;14792;50.886;6.468;2024-01-15T14:47:57;8.63;;;4.75;;
27305;SDS011;14792;50.886;6.468;2024-01-15T14:50:58;10.78;;;4.95;;
27305;SDS011;14792;50.886;6.468;2024-01-15T14:54:00;13.40;;;5.47;;
27305;SDS011;14792;50.886;6.468;2024-01-15T14:57:02;10.05;;;5.20;;
27305;SDS011;14792;50.886;6.468;2024-01-15T15:00:04;11.93;;;4.78;;
27305;SDS011;14792;50.886;6.468;2024-01-15T15:03:05;15.72;;;6.17;;
27305;SDS011;14792;50.886;6.468;2024-01-15T15:06:06;12.20;;;5.80;;
27305;SDS011;14792;50.886;6.468;2024-01-15T15:09:11;7.60;;;5.08;;
27305;SDS011;14792;50.886;6.468;2024-01-15T15:12:12;12.00;;;5.45;;
27305;SDS011;14792;50.886;6.468;2024-01-15T15:15:14;12.20;;;6.60;;
27305;SDS011;14792;50.886;6.468;2024-01-15T15:18:15;8.80;;;4.70;;
27305;SDS011;14792;50.886;6.468;2024-01-15T15:21:17;8.53;;;5.40;;
27305;SDS011;14792;50.886;6.468;2024-01-15T15:24:19;13.55;;;5.17;;
27305;SDS011;14792;50.886;6.468;2024-01-15T15:27:20;15.13;;;6.25;;
27305;SDS011;14792;50.886;6.468;2024-01-15T15:30:22;13.93;;;6.20;;
27305;SDS011;14792;50.886;6.468;2024-01-15T15:33:23;12.50;;;6.47;;
27305;SDS011;14792;50.886;6.468;2024-01-15T15:36:25;11.90;;;6.40;;
27305;SDS011;14792;50.886;6.468;2024-01-15T15:39:27;13.25;;;6.05;;
27305;SDS011;14792;50.886;6.468;2024-01-15T15:42:28;15.48;;;6.83;;
27305;SDS011;14792;50.886;6.468;2024-01-15T15:45:30;13.60;;;4.92;;
27305;SDS011;14792;50.886;6.468;2024-01-15T15:48:31;11.73;;;5.67;;
27305;SDS011;14792;50.886;6.468;2024-01-15T15:51:33;16.57;;;5.70;;
27305;SDS011;14792;50.886;6.468;2024-01-15T15:54:34;15.00;;;6.33;;
27305;SDS011;14792;50.886;6.468;2024-01-15T15:57:36;16.87;;;5.67;;
27305;SDS011;14792;50.886;6.468;2024-01-15T16:00:38;10.88;;;6.03;;
27305;SDS011;14792;50.886;6.468;2024-01-15T16:03:39;11.25;;;5.42;;
27305;SDS011;14792;50.886;6.468;2024-01-15T16:06:41;15.72;;;5.53;;
27305;SDS011;14792;50.886;6.468;2024-01-15T16:09:42;11.30;;;4.45;;
27305;SDS011;14792;50.886;6.468;2024-01-15T16:12:44;14.50;;;5.10;;
27305;SDS011;14792;50.886;6.468;2024-01-15T16:15:46;9.95;;;5.00;;
27305;SDS011;14792;50.886;6.468;2024-01-15T16:18:47;11.85;;;5.05;;
27305;SDS011;14792;50.886;6.468;2024-01-15T16:21:49;13.93;;;5.60;;
27305;SDS011;14792;50.886;6.468;2024-01-15T16:24:50;15.08;;;6.12;;
27305;SDS011;14792;50.886;6.468;2024-01-15T16:27:52;11.83;;;5.87;;
27305;SDS011;14792;50.886;6.468;2024-01-15T16:30:53;18.98;;;7.55;;
27305;SDS011;14792;50.886;6.468;2024-01-15T16:33:55;14.78;;;6.37;;
27305;SDS011;14792;50.886;6.468;2024-01-15T16:36:57;15.85;;;6.60;;
27305;SDS011;14792;50.886;6.468;2024-01-15T16:39:58;12.68;;;6.10;;
27305;SDS011;14792;50.886;6.468;2024-01-15T16:43:00;15.65;;;6.47;;
27305;SDS011;14792;50.886;6.468;2024-01-15T16:46:01;15.70;;;6.95;;
27305;SDS011;14792;50.886;6.468;2024-01-15T16:49:03;14.33;;;6.12;;
27305;SDS011;14792;50.886;6.468;2024-01-15T16:52:05;14.38;;;6.53;;
27305;SDS011;14792;50.886;6.468;2024-01-15T16:55:06;14.15;;;7.15;;
27305;SDS011;14792;50.886;6.468;2024-01-15T16:58:08;19.10;;;7.00;;
27305;SDS011;14792;50.886;6.468;2024-01-15T17:01:09;14.87;;;6.03;;
27305;SDS011;14792;50.886;6.468;2024-01-15T17:04:11;16.12;;;7.22;;
27305;SDS011;14792;50.886;6.468;2024-01-15T17:07:12;17.87;;;7.03;;
27305;SDS011;14792;50.886;6.468;2024-01-15T17:10:14;13.90;;;6.67;;
27305;SDS011;14792;50.886;6.468;2024-01-15T17:13:16;15.43;;;6.47;;
27305;SDS011;14792;50.886;6.468;2024-01-15T17:16:17;14.80;;;6.22;;
27305;SDS011;14792;50.886;6.468;2024-01-15T17:19:19;22.05;;;7.65;;
27305;SDS011;14792;50.886;6.468;2024-01-15T17:22:20;14.75;;;7.28;;
27305;SDS011;14792;50.886;6.468;2024-01-15T17:25:22;14.43;;;6.12;;
27305;SDS011;14792;50.886;6.468;2024-01-15T17:28:24;13.50;;;6.50;;
27305;SDS011;14792;50.886;6.468;2024-01-15T17:31:25;15.83;;;7.00;;
27305;SDS011;14792;50.886;6.468;2024-01-15T17:34:27;13.68;;;7.00;;
27305;SDS011;14792;50.886;6.468;2024-01-15T17:37:28;18.15;;;8.68;;
27305;SDS011;14792;50.886;6.468;2024-01-15T17:40:30;18.77;;;8.28;;
27305;SDS011;14792;50.886;6.468;2024-01-15T17:43:31;18.42;;;8.25;;
27305;SDS011;14792;50.886;6.468;2024-01-15T17:46:36;21.35;;;8.75;;
27305;SDS011;14792;50.886;6.468;2024-01-15T17:49:37;20.27;;;9.78;;
27305;SDS011;14792;50.886;6.468;2024-01-15T17:52:39;17.77;;;9.43;;
27305;SDS011;14792;50.886;6.468;2024-01-15T17:55:41;19.42;;;9.28;;